sensor_id;sensor_type;location;lat;lon;timestamp;temperature;humidity
78303;DHT22;67559;24.140;-110.296;2023-09-18T00:47:56;36.30;76.90
78303;DHT22;67559;24.140;-110.296;2023-09-18T00:57:57;35.80;79.90
78303;DHT22;67559;24.140;-110.296;2023-09-18T01:00:27;35.40;81.40
78303;DHT22;67559;24.140;-110.296;2023-09-18T01:03:00;35.30;81.50
78303;DHT22;67559;24.140;-110.296;2023-09-18T01:05:34;35.20;82.70
78303;DHT22;67559;24.140;-110.296;2023-09-18T01:08:05;35.10;83.70
78303;DHT22;67559;24.140;-110.296;2023-09-18T01:10:47;34.90;84.70
78303;DHT22;67559;24.140;-110.296;2023-09-18T01:13:25;34.80;85.40
78303;DHT22;67559;24.140;-110.296;2023-09-18T01:16:02;34.70;86.50
78303;DHT22;67559;24.140;-110.296;2023-09-18T01:18:37;34.50;87.30
78303;DHT22;67559;24.140;-110.296;2023-09-18T01:21:08;34.30;87.90
78303;DHT22;67559;24.140;-110.296;2023-09-18T01:23:38;34.30;88.60
78303;DHT22;67559;24.140;-110.296;2023-09-18T01:26:10;34.10;89.40
78303;DHT22;67559;24.140;-110.296;2023-09-18T01:28:41;34.10;89.80
78303;DHT22;67559;24.140;-110.296;2023-09-18T01:31:12;34.10;90.10
78303;DHT22;67559;24.140;-110.296;2023-09-18T01:33:43;34.00;90.60
78303;DHT22;67559;24.140;-110.296;2023-09-18T01:36:18;33.90;90.70
78303;DHT22;67559;24.140;-110.296;2023-09-18T01:38:51;33.90;90.90
78303;DHT22;67559;24.140;-110.296;2023-09-18T01:41:22;33.80;91.10
78303;DHT22;67559;24.140;-110.296;2023-09-18T01:43:55;33.70;91.20
78303;DHT22;67559;24.140;-110.296;2023-09-18T01:46:26;33.60;91.60
78303;DHT22;67559;24.140;-110.296;2023-09-18T01:48:58;33.50;91.80
78303;DHT22;67559;24.140;-110.296;2023-09-18T01:51:29;33.50;91.80
78303;DHT22;67559;24.140;-110.296;2023-09-18T01:54:00;33.40;92.00
78303;DHT22;67559;24.140;-110.296;2023-09-18T01:56:33;33.30;92.50
78303;DHT22;67559;24.140;-110.296;2023-09-18T01:59:04;33.30;93.00
78303;DHT22;67559;24.140;-110.296;2023-09-18T02:01:34;33.40;93.30
78303;DHT22;67559;24.140;-110.296;2023-09-18T02:04:07;33.40;93.40
78303;DHT22;67559;24.140;-110.296;2023-09-18T02:06:38;33.30;93.50
78303;DHT22;67559;24.140;-110.296;2023-09-18T02:09:10;33.30;93.70
78303;DHT22;67559;24.140;-110.296;2023-09-18T02:11:44;33.10;93.90
78303;DHT22;67559;24.140;-110.296;2023-09-18T02:14:15;33.00;93.80
78303;DHT22;67559;24.140;-110.296;2023-09-18T02:16:46;32.90;93.80
78303;DHT22;67559;24.140;-110.296;2023-09-18T02:19:18;33.00;93.50
78303;DHT22;67559;24.140;-110.296;2023-09-18T02:21:49;32.80;93.50
78303;DHT22;67559;24.140;-110.296;2023-09-18T02:24:20;32.70;93.60
78303;DHT22;67559;24.140;-110.296;2023-09-18T02:26:52;32.70;93.80
78303;DHT22;67559;24.140;-110.296;2023-09-18T02:29:23;32.70;93.70
78303;DHT22;67559;24.140;-110.296;2023-09-18T02:31:54;32.50;93.80
78303;DHT22;67559;24.140;-110.296;2023-09-18T02:34:26;32.60;93.80
78303;DHT22;67559;24.140;-110.296;2023-09-18T02:36:57;32.50;94.00
78303;DHT22;67559;24.140;-110.296;2023-09-18T02:39:28;32.40;94.20
78303;DHT22;67559;24.140;-110.296;2023-09-18T02:41:59;32.30;94.20
78303;DHT22;67559;24.140;-110.296;2023-09-18T02:44:32;32.30;94.50
78303;DHT22;67559;24.140;-110.296;2023-09-18T02:47:03;32.30;94.40
78303;DHT22;67559;24.140;-110.296;2023-09-18T02:49:34;32.20;94.30
78303;DHT22;67559;24.140;-110.296;2023-09-18T02:52:07;32.20;94.40
78303;DHT22;67559;24.140;-110.296;2023-09-18T02:54:38;32.10;94.70
78303;DHT22;67559;24.140;-110.296;2023-09-18T02:57:09;32.00;95.10
78303;DHT22;67559;24.140;-110.296;2023-09-18T02:59:39;31.90;95.60
78303;DHT22;67559;24.140;-110.296;2023-09-18T03:02:12;31.80;96.00
78303;DHT22;67559;24.140;-110.296;2023-09-18T03:04:43;31.70;96.80
78303;DHT22;67559;24.140;-110.296;2023-09-18T03:07:16;31.60;97.80
78303;DHT22;67559;24.140;-110.296;2023-09-18T03:09:47;31.60;98.80
78303;DHT22;67559;24.140;-110.296;2023-09-18T03:12:18;31.60;98.80
78303;DHT22;67559;24.140;-110.296;2023-09-18T03:14:49;31.50;99.40
78303;DHT22;67559;24.140;-110.296;2023-09-18T03:17:20;31.50;99.80
78303;DHT22;67559;24.140;-110.296;2023-09-18T03:19:51;31.40;99.90
78303;DHT22;67559;24.140;-110.296;2023-09-18T03:22:22;31.30;99.90
78303;DHT22;67559;24.140;-110.296;2023-09-18T03:24:53;31.40;99.90
78303;DHT22;67559;24.140;-110.296;2023-09-18T03:27:23;31.40;99.90
78303;DHT22;67559;24.140;-110.296;2023-09-18T03:29:58;31.30;99.90
78303;DHT22;67559;24.140;-110.296;2023-09-18T03:32:30;31.30;99.90
78303;DHT22;67559;24.140;-110.296;2023-09-18T03:35:02;31.30;99.90
78303;DHT22;67559;24.140;-110.296;2023-09-18T03:37:32;31.20;99.90
78303;DHT22;67559;24.140;-110.296;2023-09-18T03:40:03;31.20;99.90
78303;DHT22;67559;24.140;-110.296;2023-09-18T03:42:34;31.20;99.90
78303;DHT22;67559;24.140;-110.296;2023-09-18T03:45:08;31.10;99.90
78303;DHT22;67559;24.140;-110.296;2023-09-18T03:47:41;31.10;99.90
78303;DHT22;67559;24.140;-110.296;2023-09-18T03:50:12;31.10;99.90
78303;DHT22;67559;24.140;-110.296;2023-09-18T03:52:43;31.10;99.90
78303;DHT22;67559;24.140;-110.296;2023-09-18T03:55:14;31.00;99.90
78303;DHT22;67559;24.140;-110.296;2023-09-18T03:57:45;31.00;99.90
78303;DHT22;67559;24.140;-110.296;2023-09-18T04:00:17;31.00;99.90
78303;DHT22;67559;24.140;-110.296;2023-09-18T04:02:48;30.90;99.90
78303;DHT22;67559;24.140;-110.296;2023-09-18T04:05:21;30.80;99.90
78303;DHT22;67559;24.140;-110.296;2023-09-18T04:07:52;30.80;99.90
78303;DHT22;67559;24.140;-110.296;2023-09-18T04:10:23;30.80;99.90
78303;DHT22;67559;24.140;-110.296;2023-09-18T04:12:54;30.80;99.90
78303;DHT22;67559;24.140;-110.296;2023-09-18T04:15:24;30.70;99.90
78303;DHT22;67559;24.140;-110.296;2023-09-18T04:17:56;30.70;99.90
78303;DHT22;67559;24.140;-110.296;2023-09-18T04:20:27;30.80;99.90
78303;DHT22;67559;24.140;-110.296;2023-09-18T04:23:25;30.80;99.90
78303;DHT22;67559;24.140;-110.296;2023-09-18T04:25:56;30.70;99.90
78303;DHT22;67559;24.140;-110.296;2023-09-18T04:28:28;30.80;99.90
78303;DHT22;67559;24.140;-110.296;2023-09-18T04:30:59;30.70;99.90
78303;DHT22;67559;24.140;-110.296;2023-09-18T04:33:30;30.70;99.90
78303;DHT22;67559;24.140;-110.296;2023-09-18T04:36:01;30.80;99.90
78303;DHT22;67559;24.140;-110.296;2023-09-18T04:38:34;30.70;99.90
78303;DHT22;67559;24.140;-110.296;2023-09-18T04:41:05;30.80;99.90
78303;DHT22;67559;24.140;-110.296;2023-09-18T04:43:38;30.80;99.90
78303;DHT22;67559;24.140;-110.296;2023-09-18T04:46:09;30.90;99.90
78303;DHT22;67559;24.140;-110.296;2023-09-18T04:48:40;30.80;99.90
78303;DHT22;67559;24.140;-110.296;2023-09-18T04:51:11;30.90;99.90
78303;DHT22;67559;24.140;-110.296;2023-09-18T04:53:42;30.90;99.90
78303;DHT22;67559;24.140;-110.296;2023-09-18T04:56:14;30.90;99.90
78303;DHT22;67559;24.140;-110.296;2023-09-18T04:58:45;31.00;99.90
78303;DHT22;67559;24.140;-110.296;2023-09-18T05:01:16;30.90;99.90
78303;DHT22;67559;24.140;-110.296;2023-09-18T05:03:48;30.90;99.90
78303;DHT22;67559;24.140;-110.296;2023-09-18T05:06:19;30.90;99.90
78303;DHT22;67559;24.140;-110.296;2023-09-18T05:08:52;30.90;99.90
78303;DHT22;67559;24.140;-110.296;2023-09-18T05:11:23;30.90;99.90
78303;DHT22;67559;24.140;-110.296;2023-09-18T05:13:57;30.80;99.90
78303;DHT22;67559;24.140;-110.296;2023-09-18T05:16:28;30.80;99.90
78303;DHT22;67559;24.140;-110.296;2023-09-18T05:18:59;30.90;99.90
78303;DHT22;67559;24.140;-110.296;2023-09-18T05:21:29;30.80;99.90
78303;DHT22;67559;24.140;-110.296;2023-09-18T05:24:00;30.90;99.90
78303;DHT22;67559;24.140;-110.296;2023-09-18T05:26:34;30.80;99.90
78303;DHT22;67559;24.140;-110.296;2023-09-18T05:29:05;30.70;99.90
78303;DHT22;67559;24.140;-110.296;2023-09-18T05:31:36;30.70;99.90
78303;DHT22;67559;24.140;-110.296;2023-09-18T05:34:07;30.80;99.90
78303;DHT22;67559;24.140;-110.296;2023-09-18T05:36:39;30.80;99.90
78303;DHT22;67559;24.140;-110.296;2023-09-18T05:39:10;30.70;99.90
78303;DHT22;67559;24.140;-110.296;2023-09-18T05:41:42;30.70;99.90
78303;DHT22;67559;24.140;-110.296;2023-09-18T05:44:12;30.70;99.90
78303;DHT22;67559;24.140;-110.296;2023-09-18T05:46:43;30.80;99.90
78303;DHT22;67559;24.140;-110.296;2023-09-18T05:49:15;30.80;99.90
78303;DHT22;67559;24.140;-110.296;2023-09-18T05:51:48;30.80;99.90
78303;DHT22;67559;24.140;-110.296;2023-09-18T05:54:18;30.70;99.90
78303;DHT22;67559;24.140;-110.296;2023-09-18T05:56:50;30.80;99.90
78303;DHT22;67559;24.140;-110.296;2023-09-18T05:59:21;30.80;99.90
78303;DHT22;67559;24.140;-110.296;2023-09-18T06:01:52;30.80;99.90
78303;DHT22;67559;24.140;-110.296;2023-09-18T06:04:23;30.80;99.90
78303;DHT22;67559;24.140;-110.296;2023-09-18T06:06:54;30.80;99.90
78303;DHT22;67559;24.140;-110.296;2023-09-18T06:09:26;30.80;99.90
78303;DHT22;67559;24.140;-110.296;2023-09-18T06:11:56;30.80;99.90
78303;DHT22;67559;24.140;-110.296;2023-09-18T06:14:28;30.80;99.90
78303;DHT22;67559;24.140;-110.296;2023-09-18T06:16:59;30.80;99.90
78303;DHT22;67559;24.140;-110.296;2023-09-18T06:19:30;30.80;99.90
78303;DHT22;67559;24.140;-110.296;2023-09-18T06:22:02;30.80;99.90
78303;DHT22;67559;24.140;-110.296;2023-09-18T06:24:34;30.70;99.90
78303;DHT22;67559;24.140;-110.296;2023-09-18T06:27:05;30.70;99.90
78303;DHT22;67559;24.140;-110.296;2023-09-18T06:29:36;30.70;99.90
78303;DHT22;67559;24.140;-110.296;2023-09-18T06:32:08;30.70;99.90
78303;DHT22;67559;24.140;-110.296;2023-09-18T06:34:39;30.70;99.90
78303;DHT22;67559;24.140;-110.296;2023-09-18T06:37:12;30.70;99.90
78303;DHT22;67559;24.140;-110.296;2023-09-18T06:39:43;30.70;99.90
78303;DHT22;67559;24.140;-110.296;2023-09-18T06:42:14;30.70;99.90
78303;DHT22;67559;24.140;-110.296;2023-09-18T06:44:45;30.70;99.90
78303;DHT22;67559;24.140;-110.296;2023-09-18T06:47:16;30.70;99.90
78303;DHT22;67559;24.140;-110.296;2023-09-18T06:49:47;30.70;99.90
78303;DHT22;67559;24.140;-110.296;2023-09-18T06:52:17;30.70;99.90
78303;DHT22;67559;24.140;-110.296;2023-09-18T06:54:48;30.70;99.90
78303;DHT22;67559;24.140;-110.296;2023-09-18T06:57:19;30.70;99.90
78303;DHT22;67559;24.140;-110.296;2023-09-18T06:59:51;30.70;99.90
78303;DHT22;67559;24.140;-110.296;2023-09-18T07:02:22;30.60;99.90
78303;DHT22;67559;24.140;-110.296;2023-09-18T07:04:53;30.50;99.90
78303;DHT22;67559;24.140;-110.296;2023-09-18T07:07:24;30.60;99.90
78303;DHT22;67559;24.140;-110.296;2023-09-18T07:09:56;30.60;99.90
78303;DHT22;67559;24.140;-110.296;2023-09-18T07:12:27;30.60;99.90
78303;DHT22;67559;24.140;-110.296;2023-09-18T07:15:00;30.50;99.90
78303;DHT22;67559;24.140;-110.296;2023-09-18T07:17:32;30.50;99.90
78303;DHT22;67559;24.140;-110.296;2023-09-18T07:20:04;30.30;99.90
78303;DHT22;67559;24.140;-110.296;2023-09-18T07:22:48;30.30;99.90
78303;DHT22;67559;24.140;-110.296;2023-09-18T07:25:19;30.20;99.90
78303;DHT22;67559;24.140;-110.296;2023-09-18T07:27:50;30.10;99.90
78303;DHT22;67559;24.140;-110.296;2023-09-18T07:30:21;30.00;99.90
78303;DHT22;67559;24.140;-110.296;2023-09-18T07:32:57;29.90;99.90
78303;DHT22;67559;24.140;-110.296;2023-09-18T07:35:28;29.90;99.90
78303;DHT22;67559;24.140;-110.296;2023-09-18T07:37:59;29.80;99.90
78303;DHT22;67559;24.140;-110.296;2023-09-18T07:40:30;29.70;99.90
78303;DHT22;67559;24.140;-110.296;2023-09-18T07:43:01;29.50;99.90
78303;DHT22;67559;24.140;-110.296;2023-09-18T07:45:33;29.40;99.90
78303;DHT22;67559;24.140;-110.296;2023-09-18T07:48:04;29.40;99.90
78303;DHT22;67559;24.140;-110.296;2023-09-18T07:50:36;29.40;99.90
78303;DHT22;67559;24.140;-110.296;2023-09-18T07:53:07;29.30;99.90
78303;DHT22;67559;24.140;-110.296;2023-09-18T07:55:38;29.20;99.90
78303;DHT22;67559;24.140;-110.296;2023-09-18T07:58:08;29.20;99.90
78303;DHT22;67559;24.140;-110.296;2023-09-18T08:00:40;29.10;99.90
78303;DHT22;67559;24.140;-110.296;2023-09-18T08:03:13;28.90;99.90
78303;DHT22;67559;24.140;-110.296;2023-09-18T08:05:49;28.90;99.90
78303;DHT22;67559;24.140;-110.296;2023-09-18T08:08:21;28.80;99.90
78303;DHT22;67559;24.140;-110.296;2023-09-18T08:10:54;28.70;99.90
78303;DHT22;67559;24.140;-110.296;2023-09-18T08:13:25;28.80;99.90
78303;DHT22;67559;24.140;-110.296;2023-09-18T08:15:55;28.70;99.90
78303;DHT22;67559;24.140;-110.296;2023-09-18T08:18:26;28.60;99.90
78303;DHT22;67559;24.140;-110.296;2023-09-18T08:20:57;28.60;99.90
78303;DHT22;67559;24.140;-110.296;2023-09-18T08:23:29;28.60;99.90
78303;DHT22;67559;24.140;-110.296;2023-09-18T08:26:01;28.40;99.90
78303;DHT22;67559;24.140;-110.296;2023-09-18T08:28:32;28.50;99.90
78303;DHT22;67559;24.140;-110.296;2023-09-18T08:31:06;28.40;99.90
78303;DHT22;67559;24.140;-110.296;2023-09-18T08:33:36;28.40;99.90
78303;DHT22;67559;24.140;-110.296;2023-09-18T08:36:07;28.20;99.90
78303;DHT22;67559;24.140;-110.296;2023-09-18T08:38:38;28.20;99.90
78303;DHT22;67559;24.140;-110.296;2023-09-18T08:41:10;28.20;99.90
78303;DHT22;67559;24.140;-110.296;2023-09-18T08:43:44;28.20;99.90
78303;DHT22;67559;24.140;-110.296;2023-09-18T08:46:16;28.10;99.90
78303;DHT22;67559;24.140;-110.296;2023-09-18T08:48:48;28.10;99.90
78303;DHT22;67559;24.140;-110.296;2023-09-18T08:51:19;28.00;99.90
78303;DHT22;67559;24.140;-110.296;2023-09-18T08:53:52;28.10;99.90
78303;DHT22;67559;24.140;-110.296;2023-09-18T08:56:24;28.10;99.90
78303;DHT22;67559;24.140;-110.296;2023-09-18T08:58:56;28.10;99.90
78303;DHT22;67559;24.140;-110.296;2023-09-18T09:01:28;28.00;99.90
78303;DHT22;67559;24.140;-110.296;2023-09-18T09:03:59;28.00;99.90
78303;DHT22;67559;24.140;-110.296;2023-09-18T09:06:30;27.90;99.90
78303;DHT22;67559;24.140;-110.296;2023-09-18T09:09:01;28.00;99.90
78303;DHT22;67559;24.140;-110.296;2023-09-18T09:11:32;28.10;99.90
78303;DHT22;67559;24.140;-110.296;2023-09-18T09:14:17;28.10;99.90
78303;DHT22;67559;24.140;-110.296;2023-09-18T09:16:51;28.10;99.90
78303;DHT22;67559;24.140;-110.296;2023-09-18T09:19:35;28.10;99.90
78303;DHT22;67559;24.140;-110.296;2023-09-18T09:22:08;28.10;99.90
78303;DHT22;67559;24.140;-110.296;2023-09-18T09:24:43;28.20;99.90
78303;DHT22;67559;24.140;-110.296;2023-09-18T09:27:14;28.20;99.90
78303;DHT22;67559;24.140;-110.296;2023-09-18T09:30:01;28.30;99.90
78303;DHT22;67559;24.140;-110.296;2023-09-18T09:32:33;28.30;99.90
78303;DHT22;67559;24.140;-110.296;2023-09-18T09:35:05;28.30;99.90
78303;DHT22;67559;24.140;-110.296;2023-09-18T09:37:37;28.40;99.90
78303;DHT22;67559;24.140;-110.296;2023-09-18T09:40:09;28.40;99.90
78303;DHT22;67559;24.140;-110.296;2023-09-18T09:42:43;28.50;99.90
78303;DHT22;67559;24.140;-110.296;2023-09-18T09:45:15;28.50;99.90
78303;DHT22;67559;24.140;-110.296;2023-09-18T09:47:46;28.50;99.90
78303;DHT22;67559;24.140;-110.296;2023-09-18T09:50:17;28.50;99.90
78303;DHT22;67559;24.140;-110.296;2023-09-18T09:52:50;28.50;99.90
78303;DHT22;67559;24.140;-110.296;2023-09-18T09:55:33;28.40;99.90
78303;DHT22;67559;24.140;-110.296;2023-09-18T09:58:06;28.40;99.90
78303;DHT22;67559;24.140;-110.296;2023-09-18T10:00:47;28.40;99.90
78303;DHT22;67559;24.140;-110.296;2023-09-18T10:03:20;28.30;99.90
78303;DHT22;67559;24.140;-110.296;2023-09-18T10:05:53;28.40;99.90
78303;DHT22;67559;24.140;-110.296;2023-09-18T10:08:27;28.40;99.90
78303;DHT22;67559;24.140;-110.296;2023-09-18T10:11:05;28.40;99.90
78303;DHT22;67559;24.140;-110.296;2023-09-18T10:13:58;28.30;99.90
78303;DHT22;67559;24.140;-110.296;2023-09-18T10:16:32;28.20;99.90
78303;DHT22;67559;24.140;-110.296;2023-09-18T10:22:16;28.20;99.90
78303;DHT22;67559;24.140;-110.296;2023-09-18T10:24:54;28.20;99.90
78303;DHT22;67559;24.140;-110.296;2023-09-18T10:27:31;28.20;99.90
78303;DHT22;67559;24.140;-110.296;2023-09-18T10:30:03;28.20;99.90
78303;DHT22;67559;24.140;-110.296;2023-09-18T10:32:38;28.30;99.90
78303;DHT22;67559;24.140;-110.296;2023-09-18T10:35:10;28.30;99.90
78303;DHT22;67559;24.140;-110.296;2023-09-18T10:37:43;28.30;99.90
78303;DHT22;67559;24.140;-110.296;2023-09-18T10:40:15;28.30;99.90
78303;DHT22;67559;24.140;-110.296;2023-09-18T10:42:47;28.30;99.90
78303;DHT22;67559;24.140;-110.296;2023-09-18T10:45:20;28.30;99.90
78303;DHT22;67559;24.140;-110.296;2023-09-18T10:47:51;28.30;99.90
78303;DHT22;67559;24.140;-110.296;2023-09-18T10:50:28;28.30;99.90
78303;DHT22;67559;24.140;-110.296;2023-09-18T10:53:00;28.30;99.90
78303;DHT22;67559;24.140;-110.296;2023-09-18T10:55:31;28.20;99.90
78303;DHT22;67559;24.140;-110.296;2023-09-18T10:58:02;28.20;99.90
78303;DHT22;67559;24.140;-110.296;2023-09-18T11:00:34;28.20;99.90
78303;DHT22;67559;24.140;-110.296;2023-09-18T11:03:17;28.30;99.90
78303;DHT22;67559;24.140;-110.296;2023-09-18T11:05:49;28.30;99.90
78303;DHT22;67559;24.140;-110.296;2023-09-18T11:08:35;28.30;99.90
78303;DHT22;67559;24.140;-110.296;2023-09-18T11:11:17;28.30;99.90
78303;DHT22;67559;24.140;-110.296;2023-09-18T11:13:52;28.40;99.90
78303;DHT22;67559;24.140;-110.296;2023-09-18T11:21:34;28.20;99.90
78303;DHT22;67559;24.140;-110.296;2023-09-18T11:24:23;28.30;99.90
78303;DHT22;67559;24.140;-110.296;2023-09-18T11:26:53;28.30;99.90
78303;DHT22;67559;24.140;-110.296;2023-09-18T11:29:27;28.20;99.90
78303;DHT22;67559;24.140;-110.296;2023-09-18T11:32:01;28.30;99.90
78303;DHT22;67559;24.140;-110.296;2023-09-18T11:34:34;28.20;99.90
78303;DHT22;67559;24.140;-110.296;2023-09-18T11:37:22;28.20;99.90
78303;DHT22;67559;24.140;-110.296;2023-09-18T11:39:55;28.30;99.90
78303;DHT22;67559;24.140;-110.296;2023-09-18T11:42:28;28.20;99.90
78303;DHT22;67559;24.140;-110.296;2023-09-18T11:44:59;28.10;99.90
78303;DHT22;67559;24.140;-110.296;2023-09-18T11:47:30;28.10;99.90
78303;DHT22;67559;24.140;-110.296;2023-09-18T11:50:02;28.00;99.90
78303;DHT22;67559;24.140;-110.296;2023-09-18T11:52:33;28.00;99.90
78303;DHT22;67559;24.140;-110.296;2023-09-18T11:55:05;28.10;99.90
78303;DHT22;67559;24.140;-110.296;2023-09-18T11:57:39;28.20;99.90
78303;DHT22;67559;24.140;-110.296;2023-09-18T12:00:22;28.00;99.90
78303;DHT22;67559;24.140;-110.296;2023-09-18T12:02:56;28.00;99.90
78303;DHT22;67559;24.140;-110.296;2023-09-18T12:05:28;28.00;99.90
78303;DHT22;67559;24.140;-110.296;2023-09-18T12:07:59;28.00;99.90
78303;DHT22;67559;24.140;-110.296;2023-09-18T12:10:30;27.90;99.90
78303;DHT22;67559;24.140;-110.296;2023-09-18T12:13:05;27.90;99.90
78303;DHT22;67559;24.140;-110.296;2023-09-18T12:15:37;27.90;99.90
78303;DHT22;67559;24.140;-110.296;2023-09-18T12:18:09;27.90;99.90
78303;DHT22;67559;24.140;-110.296;2023-09-18T12:20:50;27.90;99.90
78303;DHT22;67559;24.140;-110.296;2023-09-18T12:23:21;27.80;99.90
78303;DHT22;67559;24.140;-110.296;2023-09-18T12:25:59;27.90;99.90
78303;DHT22;67559;24.140;-110.296;2023-09-18T12:28:30;27.90;99.90
78303;DHT22;67559;24.140;-110.296;2023-09-18T12:31:02;27.90;99.90
78303;DHT22;67559;24.140;-110.296;2023-09-18T12:33:39;27.90;99.90
78303;DHT22;67559;24.140;-110.296;2023-09-18T12:36:10;27.80;99.90
78303;DHT22;67559;24.140;-110.296;2023-09-18T12:38:55;27.90;99.90
78303;DHT22;67559;24.140;-110.296;2023-09-18T12:41:30;27.90;99.90
78303;DHT22;67559;24.140;-110.296;2023-09-18T12:44:01;27.80;99.90
78303;DHT22;67559;24.140;-110.296;2023-09-18T12:46:34;27.90;99.90
78303;DHT22;67559;24.140;-110.296;2023-09-18T12:49:23;27.90;99.90
78303;DHT22;67559;24.140;-110.296;2023-09-18T12:52:04;27.80;99.90
78303;DHT22;67559;24.140;-110.296;2023-09-18T12:54:42;27.90;99.90
78303;DHT22;67559;24.140;-110.296;2023-09-18T12:57:17;27.90;99.90
78303;DHT22;67559;24.140;-110.296;2023-09-18T12:59:49;27.90;99.90
78303;DHT22;67559;24.140;-110.296;2023-09-18T13:02:23;27.90;99.90
78303;DHT22;67559;24.140;-110.296;2023-09-18T13:04:57;28.00;99.90
78303;DHT22;67559;24.140;-110.296;2023-09-18T13:07:28;28.00;99.90
78303;DHT22;67559;24.140;-110.296;2023-09-18T13:10:06;28.00;99.90
78303;DHT22;67559;24.140;-110.296;2023-09-18T13:12:48;27.90;99.90
78303;DHT22;67559;24.140;-110.296;2023-09-18T13:18:13;27.90;99.90
78303;DHT22;67559;24.140;-110.296;2023-09-18T13:20:45;27.90;99.90
78303;DHT22;67559;24.140;-110.296;2023-09-18T13:23:17;27.90;99.90
78303;DHT22;67559;24.140;-110.296;2023-09-18T13:25:47;28.00;99.90
78303;DHT22;67559;24.140;-110.296;2023-09-18T13:28:18;27.90;99.90
78303;DHT22;67559;24.140;-110.296;2023-09-18T13:30:50;27.90;99.90
78303;DHT22;67559;24.140;-110.296;2023-09-18T13:33:22;27.90;99.90
78303;DHT22;67559;24.140;-110.296;2023-09-18T13:35:54;28.00;99.90
78303;DHT22;67559;24.140;-110.296;2023-09-18T13:38:25;28.00;99.90
78303;DHT22;67559;24.140;-110.296;2023-09-18T13:40:56;27.90;99.90
78303;DHT22;67559;24.140;-110.296;2023-09-18T13:43:27;28.00;99.90
78303;DHT22;67559;24.140;-110.296;2023-09-18T13:46:01;28.10;99.90
78303;DHT22;67559;24.140;-110.296;2023-09-18T13:48:34;28.10;99.90
78303;DHT22;67559;24.140;-110.296;2023-09-18T13:51:05;28.10;99.90
78303;DHT22;67559;24.140;-110.296;2023-09-18T13:53:36;28.20;99.90
78303;DHT22;67559;24.140;-110.296;2023-09-18T13:56:09;28.20;99.90
78303;DHT22;67559;24.140;-110.296;2023-09-18T13:58:39;28.20;99.90
78303;DHT22;67559;24.140;-110.296;2023-09-18T14:01:10;28.30;99.90
78303;DHT22;67559;24.140;-110.296;2023-09-18T14:03:41;28.30;99.90
78303;DHT22;67559;24.140;-110.296;2023-09-18T14:06:16;28.40;99.90
78303;DHT22;67559;24.140;-110.296;2023-09-18T14:08:48;28.50;99.90
78303;DHT22;67559;24.140;-110.296;2023-09-18T14:11:19;28.40;99.90
78303;DHT22;67559;24.140;-110.296;2023-09-18T14:13:51;28.50;99.90
78303;DHT22;67559;24.140;-110.296;2023-09-18T14:16:22;28.70;99.90
78303;DHT22;67559;24.140;-110.296;2023-09-18T14:18:54;28.80;99.90
78303;DHT22;67559;24.140;-110.296;2023-09-18T14:21:25;29.00;99.90
78303;DHT22;67559;24.140;-110.296;2023-09-18T14:23:58;29.10;99.90
78303;DHT22;67559;24.140;-110.296;2023-09-18T14:26:29;29.20;99.90
78303;DHT22;67559;24.140;-110.296;2023-09-18T14:29:00;29.20;99.90
78303;DHT22;67559;24.140;-110.296;2023-09-18T14:31:30;29.30;99.90
78303;DHT22;67559;24.140;-110.296;2023-09-18T14:34:01;29.40;99.90
78303;DHT22;67559;24.140;-110.296;2023-09-18T14:36:34;29.60;99.90
78303;DHT22;67559;24.140;-110.296;2023-09-18T14:39:05;29.80;99.90
78303;DHT22;67559;24.140;-110.296;2023-09-18T14:41:38;29.70;99.90
78303;DHT22;67559;24.140;-110.296;2023-09-18T14:44:10;30.10;99.90
78303;DHT22;67559;24.140;-110.296;2023-09-18T14:46:41;30.30;99.90
78303;DHT22;67559;24.140;-110.296;2023-09-18T14:49:15;30.30;99.90
78303;DHT22;67559;24.140;-110.296;2023-09-18T14:51:46;30.50;99.90
78303;DHT22;67559;24.140;-110.296;2023-09-18T14:54:17;30.40;99.90
78303;DHT22;67559;24.140;-110.296;2023-09-18T14:59:26;31.00;99.90
78303;DHT22;67559;24.140;-110.296;2023-09-18T15:01:57;30.70;99.90
78303;DHT22;67559;24.140;-110.296;2023-09-18T15:04:32;30.90;99.90
78303;DHT22;67559;24.140;-110.296;2023-09-18T15:07:03;31.10;99.90
78303;DHT22;67559;24.140;-110.296;2023-09-18T15:09:34;31.10;99.90
78303;DHT22;67559;24.140;-110.296;2023-09-18T15:12:05;31.30;99.90
78303;DHT22;67559;24.140;-110.296;2023-09-18T15:14:37;31.40;99.90
78303;DHT22;67559;24.140;-110.296;2023-09-18T15:17:08;31.40;99.90
78303;DHT22;67559;24.140;-110.296;2023-09-18T15:19:39;31.60;99.90
78303;DHT22;67559;24.140;-110.296;2023-09-18T15:22:11;31.80;99.90
78303;DHT22;67559;24.140;-110.296;2023-09-18T15:24:42;32.10;99.90
78303;DHT22;67559;24.140;-110.296;2023-09-18T15:27:15;32.00;99.90
78303;DHT22;67559;24.140;-110.296;2023-09-18T15:32:22;32.30;99.90
78303;DHT22;67559;24.140;-110.296;2023-09-18T15:34:53;32.40;99.90
78303;DHT22;67559;24.140;-110.296;2023-09-18T15:37:24;32.40;99.90
78303;DHT22;67559;24.140;-110.296;2023-09-18T15:39:55;32.70;99.90
78303;DHT22;67559;24.140;-110.296;2023-09-18T15:45:02;33.20;99.90
78303;DHT22;67559;24.140;-110.296;2023-09-18T15:47:33;33.30;99.90
78303;DHT22;67559;24.140;-110.296;2023-09-18T15:50:05;33.50;99.90
78303;DHT22;67559;24.140;-110.296;2023-09-18T15:52:37;33.60;99.90
78303;DHT22;67559;24.140;-110.296;2023-09-18T15:55:09;33.70;99.90
78303;DHT22;67559;24.140;-110.296;2023-09-18T15:57:40;33.50;99.90
78303;DHT22;67559;24.140;-110.296;2023-09-18T16:00:13;33.50;99.90
78303;DHT22;67559;24.140;-110.296;2023-09-18T16:02:46;33.30;99.90
78303;DHT22;67559;24.140;-110.296;2023-09-18T23:22:10;36.40;71.40
